sensor_id;sensor_type;location;lat;lon;timestamp;P1;durP1;ratioP1;P2;durP2;ratioP2
41512;SDS011;27244;59.940;30.280;2023-04-12T00:02:01;4.25;;;2.60;;
41512;SDS011;27244;59.940;30.280;2023-04-12T00:04:28;4.75;;;2.65;;
41512;SDS011;27244;59.940;30.280;2023-04-12T00:07:00;3.95;;;2.40;;
41512;SDS011;27244;59.940;30.280;2023-04-12T00:09:27;7.65;;;2.97;;
41512;SDS011;27244;59.940;30.280;2023-04-12T00:11:54;4.30;;;2.90;;
41512;SDS011;27244;59.940;30.280;2023-04-12T00:14:22;4.65;;;2.53;;
41512;SDS011;27244;59.940;30.280;2023-04-12T00:16:49;5.68;;;2.70;;
41512;SDS011;27244;59.940;30.280;2023-04-12T00:19:16;4.15;;;3.05;;
41512;SDS011;27244;59.940;30.280;2023-04-12T00:21:43;3.65;;;2.63;;
41512;SDS011;27244;59.940;30.280;2023-04-12T00:24:12;5.15;;;2.65;;
41512;SDS011;27244;59.940;30.280;2023-04-12T00:26:39;3.55;;;2.20;;
41512;SDS011;27244;59.940;30.280;2023-04-12T00:29:06;4.75;;;2.30;;
41512;SDS011;27244;59.940;30.280;2023-04-12T00:31:33;3.53;;;2.30;;
41512;SDS011;27244;59.940;30.280;2023-04-12T00:34:01;4.18;;;2.40;;
41512;SDS011;27244;59.940;30.280;2023-04-12T00:36:28;3.55;;;2.42;;
41512;SDS011;27244;59.940;30.280;2023-04-12T00:38:55;3.97;;;2.40;;
41512;SDS011;27244;59.940;30.280;2023-04-12T00:41:24;5.30;;;2.60;;
41512;SDS011;27244;59.940;30.280;2023-04-12T00:43:52;5.15;;;2.75;;
41512;SDS011;27244;59.940;30.280;2023-04-12T00:46:19;4.55;;;2.30;;
41512;SDS011;27244;59.940;30.280;2023-04-12T00:48:46;4.72;;;2.40;;
41512;SDS011;27244;59.940;30.280;2023-04-12T00:51:13;3.92;;;2.47;;
41512;SDS011;27244;59.940;30.280;2023-04-12T00:53:42;2.85;;;2.25;;
41512;SDS011;27244;59.940;30.280;2023-04-12T00:56:10;3.85;;;2.20;;
41512;SDS011;27244;59.940;30.280;2023-04-12T00:58:38;3.40;;;2.40;;
41512;SDS011;27244;59.940;30.280;2023-04-12T01:01:05;4.93;;;2.30;;
41512;SDS011;27244;59.940;30.280;2023-04-12T01:03:37;2.95;;;1.73;;
41512;SDS011;27244;59.940;30.280;2023-04-12T01:06:09;7.65;;;2.60;;
41512;SDS011;27244;59.940;30.280;2023-04-12T01:08:42;3.58;;;2.15;;
41512;SDS011;27244;59.940;30.280;2023-04-12T01:11:17;3.83;;;2.40;;
41512;SDS011;27244;59.940;30.280;2023-04-12T01:14:01;4.93;;;2.42;;
41512;SDS011;27244;59.940;30.280;2023-04-12T01:16:34;4.32;;;2.40;;
41512;SDS011;27244;59.940;30.280;2023-04-12T01:19:13;4.30;;;2.50;;
41512;SDS011;27244;59.940;30.280;2023-04-12T01:22:00;3.33;;;2.22;;
41512;SDS011;27244;59.940;30.280;2023-04-12T01:24:37;4.07;;;2.50;;
41512;SDS011;27244;59.940;30.280;2023-04-12T01:27:20;4.38;;;2.40;;
41512;SDS011;27244;59.940;30.280;2023-04-12T01:29:55;3.88;;;2.33;;
41512;SDS011;27244;59.940;30.280;2023-04-12T01:32:24;4.43;;;2.28;;
41512;SDS011;27244;59.940;30.280;2023-04-12T01:34:52;3.28;;;2.47;;
41512;SDS011;27244;59.940;30.280;2023-04-12T01:37:21;4.03;;;2.38;;
41512;SDS011;27244;59.940;30.280;2023-04-12T01:39:48;3.78;;;2.15;;
41512;SDS011;27244;59.940;30.280;2023-04-12T01:42:17;3.45;;;2.15;;
41512;SDS011;27244;59.940;30.280;2023-04-12T01:44:46;4.90;;;2.47;;
41512;SDS011;27244;59.940;30.280;2023-04-12T01:47:13;3.85;;;2.40;;
41512;SDS011;27244;59.940;30.280;2023-04-12T01:49:42;3.10;;;2.40;;
41512;SDS011;27244;59.940;30.280;2023-04-12T01:52:20;3.55;;;2.40;;
41512;SDS011;27244;59.940;30.280;2023-04-12T01:54:50;4.53;;;2.67;;
41512;SDS011;27244;59.940;30.280;2023-04-12T01:57:23;3.40;;;2.15;;
41512;SDS011;27244;59.940;30.280;2023-04-12T01:59:53;4.97;;;2.30;;
41512;SDS011;27244;59.940;30.280;2023-04-12T02:02:23;3.47;;;2.33;;
41512;SDS011;27244;59.940;30.280;2023-04-12T02:04:51;4.07;;;2.55;;
41512;SDS011;27244;59.940;30.280;2023-04-12T02:07:19;5.90;;;2.45;;
41512;SDS011;27244;59.940;30.280;2023-04-12T02:09:47;5.05;;;2.42;;
41512;SDS011;27244;59.940;30.280;2023-04-12T02:12:18;4.38;;;2.35;;
41512;SDS011;27244;59.940;30.280;2023-04-12T02:14:46;3.50;;;2.08;;
41512;SDS011;27244;59.940;30.280;2023-04-12T02:17:17;2.45;;;2.22;;
41512;SDS011;27244;59.940;30.280;2023-04-12T02:19:45;4.15;;;2.20;;
41512;SDS011;27244;59.940;30.280;2023-04-12T02:22:13;3.33;;;2.20;;
41512;SDS011;27244;59.940;30.280;2023-04-12T02:24:41;4.80;;;2.15;;
41512;SDS011;27244;59.940;30.280;2023-04-12T02:27:08;2.78;;;2.20;;
41512;SDS011;27244;59.940;30.280;2023-04-12T02:29:36;3.65;;;2.20;;
41512;SDS011;27244;59.940;30.280;2023-04-12T02:32:04;3.42;;;2.20;;
41512;SDS011;27244;59.940;30.280;2023-04-12T02:34:33;3.97;;;2.35;;
41512;SDS011;27244;59.940;30.280;2023-04-12T02:37:14;8.27;;;3.13;;
41512;SDS011;27244;59.940;30.280;2023-04-12T02:39:42;4.32;;;1.90;;
41512;SDS011;27244;59.940;30.280;2023-04-12T02:42:09;4.00;;;2.20;;
41512;SDS011;27244;59.940;30.280;2023-04-12T02:44:37;3.25;;;1.98;;
41512;SDS011;27244;59.940;30.280;2023-04-12T02:47:11;4.22;;;2.45;;
41512;SDS011;27244;59.940;30.280;2023-04-12T02:49:42;2.90;;;2.00;;
41512;SDS011;27244;59.940;30.280;2023-04-12T02:52:11;4.07;;;2.30;;
41512;SDS011;27244;59.940;30.280;2023-04-12T02:54:48;3.33;;;2.33;;
41512;SDS011;27244;59.940;30.280;2023-04-12T02:57:18;4.78;;;2.33;;
41512;SDS011;27244;59.940;30.280;2023-04-12T02:59:46;2.85;;;2.05;;
41512;SDS011;27244;59.940;30.280;2023-04-12T03:02:33;4.68;;;2.85;;
41512;SDS011;27244;59.940;30.280;2023-04-12T03:05:04;4.22;;;2.45;;
41512;SDS011;27244;59.940;30.280;2023-04-12T03:07:38;4.28;;;1.98;;
41512;SDS011;27244;59.940;30.280;2023-04-12T03:10:07;3.70;;;2.40;;
41512;SDS011;27244;59.940;30.280;2023-04-12T03:12:41;3.17;;;2.22;;
41512;SDS011;27244;59.940;30.280;2023-04-12T03:15:15;3.83;;;2.38;;
41512;SDS011;27244;59.940;30.280;2023-04-12T03:17:46;5.00;;;2.65;;
41512;SDS011;27244;59.940;30.280;2023-04-12T03:20:17;8.73;;;2.53;;
41512;SDS011;27244;59.940;30.280;2023-04-12T03:22:57;6.65;;;2.40;;
41512;SDS011;27244;59.940;30.280;2023-04-12T03:25:29;3.55;;;2.28;;
41512;SDS011;27244;59.940;30.280;2023-04-12T03:28:04;5.18;;;2.30;;
41512;SDS011;27244;59.940;30.280;2023-04-12T03:30:44;5.38;;;2.25;;
41512;SDS011;27244;59.940;30.280;2023-04-12T03:33:15;4.30;;;2.50;;
41512;SDS011;27244;59.940;30.280;2023-04-12T03:35:45;3.08;;;2.00;;
41512;SDS011;27244;59.940;30.280;2023-04-12T03:38:13;6.55;;;2.30;;
41512;SDS011;27244;59.940;30.280;2023-04-12T03:40:41;4.80;;;2.30;;
41512;SDS011;27244;59.940;30.280;2023-04-12T03:43:08;7.05;;;2.20;;
41512;SDS011;27244;59.940;30.280;2023-04-12T03:45:35;3.22;;;2.38;;
41512;SDS011;27244;59.940;30.280;2023-04-12T03:48:06;4.43;;;2.13;;
41512;SDS011;27244;59.940;30.280;2023-04-12T03:50:40;3.67;;;2.00;;
41512;SDS011;27244;59.940;30.280;2023-04-12T03:53:19;3.80;;;2.28;;
41512;SDS011;27244;59.940;30.280;2023-04-12T03:55:47;4.88;;;2.35;;
41512;SDS011;27244;59.940;30.280;2023-04-12T03:58:14;4.20;;;2.30;;
41512;SDS011;27244;59.940;30.280;2023-04-12T04:00:45;4.45;;;2.25;;
41512;SDS011;27244;59.940;30.280;2023-04-12T04:03:13;7.53;;;2.30;;
41512;SDS011;27244;59.940;30.280;2023-04-12T04:05:46;5.00;;;2.63;;
41512;SDS011;27244;59.940;30.280;2023-04-12T04:08:17;7.00;;;2.30;;
41512;SDS011;27244;59.940;30.280;2023-04-12T04:10:51;4.10;;;2.38;;
41512;SDS011;27244;59.940;30.280;2023-04-12T04:13:21;7.35;;;2.75;;
41512;SDS011;27244;59.940;30.280;2023-04-12T04:15:55;7.25;;;2.63;;
41512;SDS011;27244;59.940;30.280;2023-04-12T04:18:26;9.80;;;3.25;;
41512;SDS011;27244;59.940;30.280;2023-04-12T04:20:53;4.32;;;2.60;;
41512;SDS011;27244;59.940;30.280;2023-04-12T04:23:23;5.40;;;2.90;;
41512;SDS011;27244;59.940;30.280;2023-04-12T04:25:53;6.45;;;3.50;;
41512;SDS011;27244;59.940;30.280;2023-04-12T04:28:21;5.00;;;3.10;;
41512;SDS011;27244;59.940;30.280;2023-04-12T04:30:49;5.65;;;2.88;;
41512;SDS011;27244;59.940;30.280;2023-04-12T04:33:20;5.53;;;3.05;;
41512;SDS011;27244;59.940;30.280;2023-04-12T04:35:49;6.63;;;3.40;;
41512;SDS011;27244;59.940;30.280;2023-04-12T04:38:28;7.53;;;3.45;;
41512;SDS011;27244;59.940;30.280;2023-04-12T04:41:15;6.95;;;3.50;;
41512;SDS011;27244;59.940;30.280;2023-04-12T04:43:54;5.67;;;2.93;;
41512;SDS011;27244;59.940;30.280;2023-04-12T04:46:25;4.28;;;3.10;;
41512;SDS011;27244;59.940;30.280;2023-04-12T04:48:55;5.03;;;2.80;;
41512;SDS011;27244;59.940;30.280;2023-04-12T04:51:23;8.20;;;3.40;;
41512;SDS011;27244;59.940;30.280;2023-04-12T04:53:52;6.97;;;3.25;;
41512;SDS011;27244;59.940;30.280;2023-04-12T04:56:20;6.22;;;3.22;;
41512;SDS011;27244;59.940;30.280;2023-04-12T04:58:51;5.93;;;3.20;;
41512;SDS011;27244;59.940;30.280;2023-04-12T05:01:21;5.50;;;3.15;;
41512;SDS011;27244;59.940;30.280;2023-04-12T05:03:51;5.00;;;2.97;;
41512;SDS011;27244;59.940;30.280;2023-04-12T05:06:20;6.45;;;2.90;;
41512;SDS011;27244;59.940;30.280;2023-04-12T05:08:51;7.55;;;3.33;;
41512;SDS011;27244;59.940;30.280;2023-04-12T05:11:21;5.93;;;2.90;;
41512;SDS011;27244;59.940;30.280;2023-04-12T05:13:49;6.60;;;3.40;;
41512;SDS011;27244;59.940;30.280;2023-04-12T05:16:20;6.30;;;2.72;;
41512;SDS011;27244;59.940;30.280;2023-04-12T05:18:47;6.80;;;2.78;;
41512;SDS011;27244;59.940;30.280;2023-04-12T05:21:14;5.13;;;2.70;;
41512;SDS011;27244;59.940;30.280;2023-04-12T05:23:43;6.55;;;3.25;;
41512;SDS011;27244;59.940;30.280;2023-04-12T05:26:12;8.57;;;3.30;;
41512;SDS011;27244;59.940;30.280;2023-04-12T05:28:44;7.18;;;3.30;;
41512;SDS011;27244;59.940;30.280;2023-04-12T05:31:11;8.35;;;3.00;;
41512;SDS011;27244;59.940;30.280;2023-04-12T05:33:38;5.93;;;3.20;;
41512;SDS011;27244;59.940;30.280;2023-04-12T05:36:06;7.25;;;3.47;;
41512;SDS011;27244;59.940;30.280;2023-04-12T05:38:33;6.05;;;2.95;;
41512;SDS011;27244;59.940;30.280;2023-04-12T05:41:03;6.10;;;3.08;;
41512;SDS011;27244;59.940;30.280;2023-04-12T05:43:32;5.82;;;3.03;;
41512;SDS011;27244;59.940;30.280;2023-04-12T05:46:04;6.18;;;3.28;;
41512;SDS011;27244;59.940;30.280;2023-04-12T05:48:33;7.70;;;2.95;;
41512;SDS011;27244;59.940;30.280;2023-04-12T05:51:01;8.13;;;3.40;;
41512;SDS011;27244;59.940;30.280;2023-04-12T05:53:29;5.35;;;2.95;;
41512;SDS011;27244;59.940;30.280;2023-04-12T05:56:00;8.23;;;3.15;;
41512;SDS011;27244;59.940;30.280;2023-04-12T05:58:27;5.47;;;2.95;;
41512;SDS011;27244;59.940;30.280;2023-04-12T06:00:56;5.18;;;2.90;;
41512;SDS011;27244;59.940;30.280;2023-04-12T06:03:33;6.18;;;3.08;;
41512;SDS011;27244;59.940;30.280;2023-04-12T06:06:07;8.02;;;3.42;;
41512;SDS011;27244;59.940;30.280;2023-04-12T06:08:34;8.10;;;3.33;;
41512;SDS011;27244;59.940;30.280;2023-04-12T06:11:02;8.57;;;3.38;;
41512;SDS011;27244;59.940;30.280;2023-04-12T06:13:30;7.57;;;3.38;;
41512;SDS011;27244;59.940;30.280;2023-04-12T06:15:57;7.60;;;3.30;;
41512;SDS011;27244;59.940;30.280;2023-04-12T06:18:24;7.10;;;3.53;;
41512;SDS011;27244;59.940;30.280;2023-04-12T06:20:52;8.10;;;3.35;;
41512;SDS011;27244;59.940;30.280;2023-04-12T06:23:20;9.68;;;3.40;;
41512;SDS011;27244;59.940;30.280;2023-04-12T06:25:48;12.20;;;3.25;;
41512;SDS011;27244;59.940;30.280;2023-04-12T06:28:17;8.65;;;3.55;;
41512;SDS011;27244;59.940;30.280;2023-04-12T06:30:46;10.52;;;4.47;;
41512;SDS011;27244;59.940;30.280;2023-04-12T06:33:13;7.53;;;3.47;;
41512;SDS011;27244;59.940;30.280;2023-04-12T06:35:41;12.95;;;3.95;;
41512;SDS011;27244;59.940;30.280;2023-04-12T06:38:09;8.85;;;3.60;;
41512;SDS011;27244;59.940;30.280;2023-04-12T06:40:36;8.15;;;3.72;;
41512;SDS011;27244;59.940;30.280;2023-04-12T06:43:03;9.05;;;3.35;;
41512;SDS011;27244;59.940;30.280;2023-04-12T06:45:31;7.35;;;3.60;;
41512;SDS011;27244;59.940;30.280;2023-04-12T06:48:00;12.45;;;3.50;;
41512;SDS011;27244;59.940;30.280;2023-04-12T06:50:27;9.95;;;4.40;;
41512;SDS011;27244;59.940;30.280;2023-04-12T06:52:54;10.02;;;3.85;;
41512;SDS011;27244;59.940;30.280;2023-04-12T06:55:22;9.63;;;4.07;;
41512;SDS011;27244;59.940;30.280;2023-04-12T06:57:51;11.30;;;3.45;;
41512;SDS011;27244;59.940;30.280;2023-04-12T07:00:18;7.22;;;3.20;;
41512;SDS011;27244;59.940;30.280;2023-04-12T07:02:45;11.75;;;3.95;;
41512;SDS011;27244;59.940;30.280;2023-04-12T07:05:12;5.47;;;3.20;;
41512;SDS011;27244;59.940;30.280;2023-04-12T07:07:39;7.05;;;3.80;;
41512;SDS011;27244;59.940;30.280;2023-04-12T07:10:06;7.93;;;3.50;;
41512;SDS011;27244;59.940;30.280;2023-04-12T07:12:35;7.95;;;3.08;;
41512;SDS011;27244;59.940;30.280;2023-04-12T07:15:02;15.55;;;4.45;;
41512;SDS011;27244;59.940;30.280;2023-04-12T07:17:30;8.80;;;3.90;;
41512;SDS011;27244;59.940;30.280;2023-04-12T07:19:57;13.15;;;4.40;;
41512;SDS011;27244;59.940;30.280;2023-04-12T07:22:24;14.25;;;3.97;;
41512;SDS011;27244;59.940;30.280;2023-04-12T07:24:51;10.70;;;3.83;;
41512;SDS011;27244;59.940;30.280;2023-04-12T07:27:18;12.95;;;3.90;;
41512;SDS011;27244;59.940;30.280;2023-04-12T07:29:46;10.27;;;4.00;;
41512;SDS011;27244;59.940;30.280;2023-04-12T07:32:13;7.15;;;3.80;;
41512;SDS011;27244;59.940;30.280;2023-04-12T07:34:40;10.68;;;3.78;;
41512;SDS011;27244;59.940;30.280;2023-04-12T07:37:07;13.02;;;4.25;;
41512;SDS011;27244;59.940;30.280;2023-04-12T07:39:34;29.98;;;5.85;;
41512;SDS011;27244;59.940;30.280;2023-04-12T07:42:03;18.85;;;4.53;;
41512;SDS011;27244;59.940;30.280;2023-04-12T07:44:30;15.30;;;3.92;;
41512;SDS011;27244;59.940;30.280;2023-04-12T07:46:59;16.73;;;5.10;;
41512;SDS011;27244;59.940;30.280;2023-04-12T07:49:26;13.38;;;3.75;;
41512;SDS011;27244;59.940;30.280;2023-04-12T07:52:48;14.25;;;4.55;;
41512;SDS011;27244;59.940;30.280;2023-04-12T07:55:15;15.45;;;4.13;;
41512;SDS011;27244;59.940;30.280;2023-04-12T08:01:01;14.70;;;4.45;;
41512;SDS011;27244;59.940;30.280;2023-04-12T08:03:29;10.77;;;4.28;;
41512;SDS011;27244;59.940;30.280;2023-04-12T08:05:56;10.75;;;4.07;;
41512;SDS011;27244;59.940;30.280;2023-04-12T08:08:23;9.32;;;4.22;;
41512;SDS011;27244;59.940;30.280;2023-04-12T08:10:50;15.32;;;4.40;;
41512;SDS011;27244;59.940;30.280;2023-04-12T08:13:32;10.98;;;4.40;;
41512;SDS011;27244;59.940;30.280;2023-04-12T08:15:59;15.30;;;4.38;;
41512;SDS011;27244;59.940;30.280;2023-04-12T08:18:27;12.27;;;4.10;;
41512;SDS011;27244;59.940;30.280;2023-04-12T08:20:59;11.52;;;3.80;;
41512;SDS011;27244;59.940;30.280;2023-04-12T08:23:26;11.23;;;4.20;;
41512;SDS011;27244;59.940;30.280;2023-04-12T08:25:53;10.32;;;4.03;;
41512;SDS011;27244;59.940;30.280;2023-04-12T08:28:27;13.68;;;4.13;;
41512;SDS011;27244;59.940;30.280;2023-04-12T08:30:55;9.50;;;4.07;;
41512;SDS011;27244;59.940;30.280;2023-04-12T08:33:23;8.02;;;3.95;;
41512;SDS011;27244;59.940;30.280;2023-04-12T08:35:51;10.38;;;4.28;;
41512;SDS011;27244;59.940;30.280;2023-04-12T08:38:19;14.55;;;4.97;;
41512;SDS011;27244;59.940;30.280;2023-04-12T08:40:46;10.18;;;4.25;;
41512;SDS011;27244;59.940;30.280;2023-04-12T08:43:13;10.48;;;4.65;;
41512;SDS011;27244;59.940;30.280;2023-04-12T08:45:43;10.43;;;3.95;;
41512;SDS011;27244;59.940;30.280;2023-04-12T08:48:10;12.18;;;4.45;;
41512;SDS011;27244;59.940;30.280;2023-04-12T08:50:37;8.30;;;4.38;;
41512;SDS011;27244;59.940;30.280;2023-04-12T08:53:08;10.10;;;4.13;;
41512;SDS011;27244;59.940;30.280;2023-04-12T08:55:37;10.43;;;4.53;;
41512;SDS011;27244;59.940;30.280;2023-04-12T08:58:04;12.82;;;5.13;;
41512;SDS011;27244;59.940;30.280;2023-04-12T09:00:33;10.52;;;4.50;;
41512;SDS011;27244;59.940;30.280;2023-04-12T09:03:02;10.40;;;4.78;;
41512;SDS011;27244;59.940;30.280;2023-04-12T09:05:30;11.95;;;3.90;;
41512;SDS011;27244;59.940;30.280;2023-04-12T09:07:57;8.02;;;4.32;;
41512;SDS011;27244;59.940;30.280;2023-04-12T09:10:31;9.02;;;4.13;;
41512;SDS011;27244;59.940;30.280;2023-04-12T09:13:00;9.40;;;4.30;;
41512;SDS011;27244;59.940;30.280;2023-04-12T09:15:28;8.75;;;4.47;;
41512;SDS011;27244;59.940;30.280;2023-04-12T09:18:03;11.63;;;4.40;;
41512;SDS011;27244;59.940;30.280;2023-04-12T09:20:31;11.23;;;4.18;;
41512;SDS011;27244;59.940;30.280;2023-04-12T09:22:58;11.93;;;5.32;;
41512;SDS011;27244;59.940;30.280;2023-04-12T09:25:37;12.25;;;4.78;;
41512;SDS011;27244;59.940;30.280;2023-04-12T09:30:50;11.85;;;4.05;;
41512;SDS011;27244;59.940;30.280;2023-04-12T09:33:18;6.90;;;3.88;;
41512;SDS011;27244;59.940;30.280;2023-04-12T09:35:45;10.40;;;3.70;;
41512;SDS011;27244;59.940;30.280;2023-04-12T09:38:12;6.57;;;3.80;;
41512;SDS011;27244;59.940;30.280;2023-04-12T09:40:40;9.65;;;3.90;;
41512;SDS011;27244;59.940;30.280;2023-04-12T10:38:19;5.20;;;2.90;;
41512;SDS011;27244;59.940;30.280;2023-04-12T10:41:06;7.55;;;2.80;;
41512;SDS011;27244;59.940;30.280;2023-04-12T10:43:38;5.05;;;2.70;;
41512;SDS011;27244;59.940;30.280;2023-04-12T10:46:05;4.57;;;2.55;;
41512;SDS011;27244;59.940;30.280;2023-04-12T10:48:32;3.88;;;2.42;;
41512;SDS011;27244;59.940;30.280;2023-04-12T10:53:48;5.30;;;2.83;;
41512;SDS011;27244;59.940;30.280;2023-04-12T10:56:33;4.07;;;2.42;;
41512;SDS011;27244;59.940;30.280;2023-04-12T10:59:03;4.13;;;2.33;;
41512;SDS011;27244;59.940;30.280;2023-04-12T11:01:37;3.85;;;2.17;;
41512;SDS011;27244;59.940;30.280;2023-04-12T11:04:14;4.45;;;2.53;;
41512;SDS011;27244;59.940;30.280;2023-04-12T11:06:59;3.67;;;2.45;;
41512;SDS011;27244;59.940;30.280;2023-04-12T11:09:51;5.55;;;2.80;;
41512;SDS011;27244;59.940;30.280;2023-04-12T11:12:34;4.28;;;2.80;;
41512;SDS011;27244;59.940;30.280;2023-04-12T11:15:01;5.93;;;2.60;;
41512;SDS011;27244;59.940;30.280;2023-04-12T11:18:02;5.05;;;2.45;;
41512;SDS011;27244;59.940;30.280;2023-04-12T11:20:32;4.70;;;2.22;;
41512;SDS011;27244;59.940;30.280;2023-04-12T11:23:00;3.30;;;2.47;;
41512;SDS011;27244;59.940;30.280;2023-04-12T11:25:31;4.15;;;2.33;;
41512;SDS011;27244;59.940;30.280;2023-04-12T11:27:59;4.93;;;2.72;;
41512;SDS011;27244;59.940;30.280;2023-04-12T11:30:27;3.38;;;2.25;;
41512;SDS011;27244;59.940;30.280;2023-04-12T11:32:54;3.53;;;2.25;;
41512;SDS011;27244;59.940;30.280;2023-04-12T11:35:21;4.60;;;2.38;;
41512;SDS011;27244;59.940;30.280;2023-04-12T11:59:57;4.38;;;2.20;;
41512;SDS011;27244;59.940;30.280;2023-04-12T12:02:24;3.08;;;2.00;;
41512;SDS011;27244;59.940;30.280;2023-04-12T12:04:52;6.53;;;2.28;;
41512;SDS011;27244;59.940;30.280;2023-04-12T12:07:20;3.63;;;1.90;;
41512;SDS011;27244;59.940;30.280;2023-04-12T12:09:48;4.70;;;2.05;;
41512;SDS011;27244;59.940;30.280;2023-04-12T12:12:19;5.90;;;2.13;;
41512;SDS011;27244;59.940;30.280;2023-04-12T12:14:49;2.70;;;1.67;;
41512;SDS011;27244;59.940;30.280;2023-04-12T12:17:18;4.13;;;2.10;;
41512;SDS011;27244;59.940;30.280;2023-04-12T12:19:45;3.45;;;1.90;;
41512;SDS011;27244;59.940;30.280;2023-04-12T12:22:13;2.63;;;2.08;;
41512;SDS011;27244;59.940;30.280;2023-04-12T12:24:45;2.60;;;2.08;;
41512;SDS011;27244;59.940;30.280;2023-04-12T12:27:16;4.15;;;1.88;;
41512;SDS011;27244;59.940;30.280;2023-04-12T12:29:47;3.80;;;1.88;;
41512;SDS011;27244;59.940;30.280;2023-04-12T12:32:15;3.13;;;2.05;;
41512;SDS011;27244;59.940;30.280;2023-04-12T12:34:51;3.55;;;2.08;;
41512;SDS011;27244;59.940;30.280;2023-04-12T12:37:21;2.50;;;1.80;;
41512;SDS011;27244;59.940;30.280;2023-04-12T12:40:03;4.17;;;1.90;;
41512;SDS011;27244;59.940;30.280;2023-04-12T12:42:35;2.60;;;1.70;;
41512;SDS011;27244;59.940;30.280;2023-04-12T12:45:10;2.95;;;1.90;;
41512;SDS011;27244;59.940;30.280;2023-04-12T12:47:46;3.10;;;1.80;;
41512;SDS011;27244;59.940;30.280;2023-04-12T12:50:15;2.90;;;2.03;;
41512;SDS011;27244;59.940;30.280;2023-04-12T12:52:44;2.40;;;1.90;;
41512;SDS011;27244;59.940;30.280;2023-04-12T12:55:12;3.15;;;2.00;;
41512;SDS011;27244;59.940;30.280;2023-04-12T12:57:40;4.57;;;1.73;;
41512;SDS011;27244;59.940;30.280;2023-04-12T13:00:09;2.53;;;1.60;;
41512;SDS011;27244;59.940;30.280;2023-04-12T13:02:37;2.75;;;2.28;;
41512;SDS011;27244;59.940;30.280;2023-04-12T13:05:06;2.10;;;1.60;;
41512;SDS011;27244;59.940;30.280;2023-04-12T13:07:34;1.77;;;1.33;;
41512;SDS011;27244;59.940;30.280;2023-04-12T13:10:01;2.63;;;1.65;;
41512;SDS011;27244;59.940;30.280;2023-04-12T13:12:29;3.45;;;1.55;;
41512;SDS011;27244;59.940;30.280;2023-04-12T13:14:56;2.38;;;1.52;;
41512;SDS011;27244;59.940;30.280;2023-04-12T13:17:24;3.60;;;1.75;;
41512;SDS011;27244;59.940;30.280;2023-04-12T13:19:52;3.40;;;1.77;;
41512;SDS011;27244;59.940;30.280;2023-04-12T13:22:21;4.07;;;2.13;;
41512;SDS011;27244;59.940;30.280;2023-04-12T13:24:51;2.00;;;1.60;;
41512;SDS011;27244;59.940;30.280;2023-04-12T13:27:19;2.83;;;1.50;;
41512;SDS011;27244;59.940;30.280;2023-04-12T13:32:35;3.58;;;1.83;;
41512;SDS011;27244;59.940;30.280;2023-04-12T13:35:02;2.00;;;1.52;;
41512;SDS011;27244;59.940;30.280;2023-04-12T13:37:32;1.88;;;1.55;;
41512;SDS011;27244;59.940;30.280;2023-04-12T13:39:59;1.80;;;1.40;;
41512;SDS011;27244;59.940;30.280;2023-04-12T13:42:26;2.05;;;1.50;;
41512;SDS011;27244;59.940;30.280;2023-04-12T13:44:54;2.75;;;1.80;;
41512;SDS011;27244;59.940;30.280;2023-04-12T13:47:21;4.93;;;1.83;;
41512;SDS011;27244;59.940;30.280;2023-04-12T13:49:48;2.63;;;1.70;;
41512;SDS011;27244;59.940;30.280;2023-04-12T13:52:15;4.18;;;1.85;;
41512;SDS011;27244;59.940;30.280;2023-04-12T13:54:44;3.95;;;2.13;;
41512;SDS011;27244;59.940;30.280;2023-04-12T13:57:11;3.78;;;1.63;;
41512;SDS011;27244;59.940;30.280;2023-04-12T13:59:38;1.98;;;1.52;;
41512;SDS011;27244;59.940;30.280;2023-04-12T14:02:05;2.47;;;1.40;;
41512;SDS011;27244;59.940;30.280;2023-04-12T14:04:32;2.35;;;1.70;;
41512;SDS011;27244;59.940;30.280;2023-04-12T14:06:59;3.67;;;1.55;;
41512;SDS011;27244;59.940;30.280;2023-04-12T14:09:28;2.80;;;1.90;;
41512;SDS011;27244;59.940;30.280;2023-04-12T14:11:58;1.98;;;1.58;;
41512;SDS011;27244;59.940;30.280;2023-04-12T14:14:26;3.50;;;1.88;;
41512;SDS011;27244;59.940;30.280;2023-04-12T14:16:54;3.50;;;1.67;;
41512;SDS011;27244;59.940;30.280;2023-04-12T14:19:21;2.47;;;1.60;;
41512;SDS011;27244;59.940;30.280;2023-04-12T14:21:49;3.08;;;1.88;;
41512;SDS011;27244;59.940;30.280;2023-04-12T14:24:16;2.70;;;1.70;;
41512;SDS011;27244;59.940;30.280;2023-04-12T14:26:44;4.45;;;1.70;;
41512;SDS011;27244;59.940;30.280;2023-04-12T14:29:12;4.20;;;1.98;;
41512;SDS011;27244;59.940;30.280;2023-04-12T14:31:41;3.55;;;1.50;;
41512;SDS011;27244;59.940;30.280;2023-04-12T14:34:08;2.60;;;1.77;;
41512;SDS011;27244;59.940;30.280;2023-04-12T14:36:35;4.40;;;2.20;;
41512;SDS011;27244;59.940;30.280;2023-04-12T14:39:02;6.68;;;1.75;;
41512;SDS011;27244;59.940;30.280;2023-04-12T14:41:30;3.35;;;1.77;;
41512;SDS011;27244;59.940;30.280;2023-04-12T14:43:57;4.05;;;1.67;;
41512;SDS011;27244;59.940;30.280;2023-04-12T14:46:26;4.13;;;1.60;;
41512;SDS011;27244;59.940;30.280;2023-04-12T14:48:54;3.72;;;1.50;;
41512;SDS011;27244;59.940;30.280;2023-04-12T14:51:23;3.50;;;1.38;;
41512;SDS011;27244;59.940;30.280;2023-04-12T14:53:52;4.93;;;1.70;;
41512;SDS011;27244;59.940;30.280;2023-04-12T14:56:19;3.22;;;1.70;;
41512;SDS011;27244;59.940;30.280;2023-04-12T14:58:46;3.13;;;1.67;;
41512;SDS011;27244;59.940;30.280;2023-04-12T15:01:13;4.75;;;1.60;;
41512;SDS011;27244;59.940;30.280;2023-04-12T15:03:43;3.85;;;1.42;;
41512;SDS011;27244;59.940;30.280;2023-04-12T15:06:11;2.90;;;1.83;;
41512;SDS011;27244;59.940;30.280;2023-04-12T15:08:39;1.95;;;1.45;;
41512;SDS011;27244;59.940;30.280;2023-04-12T15:11:08;4.03;;;1.67;;
41512;SDS011;27244;59.940;30.280;2023-04-12T15:13:37;3.60;;;1.67;;
41512;SDS011;27244;59.940;30.280;2023-04-12T15:16:06;5.07;;;1.70;;
41512;SDS011;27244;59.940;30.280;2023-04-12T15:18:34;2.97;;;1.70;;
41512;SDS011;27244;59.940;30.280;2023-04-12T15:21:06;3.47;;;1.80;;
41512;SDS011;27244;59.940;30.280;2023-04-12T15:23:34;4.75;;;2.05;;
41512;SDS011;27244;59.940;30.280;2023-04-12T15:26:01;4.57;;;1.92;;
41512;SDS011;27244;59.940;30.280;2023-04-12T15:28:31;3.40;;;1.70;;
41512;SDS011;27244;59.940;30.280;2023-04-12T15:30:58;3.95;;;1.88;;
41512;SDS011;27244;59.940;30.280;2023-04-12T15:33:26;6.03;;;2.20;;
41512;SDS011;27244;59.940;30.280;2023-04-12T15:35:53;3.72;;;1.90;;
41512;SDS011;27244;59.940;30.280;2023-04-12T15:38:23;3.92;;;2.10;;
41512;SDS011;27244;59.940;30.280;2023-04-12T15:40:52;3.20;;;2.10;;
41512;SDS011;27244;59.940;30.280;2023-04-12T15:43:20;4.00;;;2.10;;
41512;SDS011;27244;59.940;30.280;2023-04-12T15:45:48;3.53;;;1.73;;
41512;SDS011;27244;59.940;30.280;2023-04-12T15:48:17;4.20;;;2.08;;
41512;SDS011;27244;59.940;30.280;2023-04-12T15:50:45;3.17;;;1.77;;
41512;SDS011;27244;59.940;30.280;2023-04-12T15:53:13;4.82;;;1.90;;
41512;SDS011;27244;59.940;30.280;2023-04-12T15:55:45;3.15;;;1.98;;
41512;SDS011;27244;59.940;30.280;2023-04-12T15:58:13;3.25;;;2.00;;
41512;SDS011;27244;59.940;30.280;2023-04-12T16:00:40;5.13;;;1.83;;
41512;SDS011;27244;59.940;30.280;2023-04-12T16:03:07;3.28;;;1.90;;
41512;SDS011;27244;59.940;30.280;2023-04-12T16:05:34;3.55;;;1.60;;
41512;SDS011;27244;59.940;30.280;2023-04-12T16:08:01;3.58;;;1.60;;
41512;SDS011;27244;59.940;30.280;2023-04-12T16:10:28;2.95;;;1.85;;
41512;SDS011;27244;59.940;30.280;2023-04-12T16:12:57;4.13;;;1.60;;
41512;SDS011;27244;59.940;30.280;2023-04-12T16:15:30;3.97;;;1.67;;
41512;SDS011;27244;59.940;30.280;2023-04-12T16:18:15;3.08;;;2.13;;